Time;durP1;ratioP1;P1;durP2;ratioP2;P2;SDS_P1;SDS_P2;PMS_P1;PMS_P2;Temp;Humidity;BMP_temperature;BMP_pressure;BME280_temperature;BME280_humidity;BME280_pressure;Samples;Min_cycle;Max_cycle;Signal;HPM_P1;HPM_P2
2022/05/12 00:01:00;;;;;;;11.98;2.38;;;;;;;;;;4984873;28;20050;-91
2022/05/12 00:03:28;;;;;;;7.72;2.53;;;;;;;;;;4976673;28;20058;-91
2022/05/12 00:05:56;;;;;;;10.43;2.47;;;;;;;;;;4978627;28;20430;-91
2022/05/12 00:08:24;;;;;;;5.50;2.42;;;;;;;;;;4977255;28;20057;-88
2022/05/12 00:10:52;;;;;;;9.00;2.40;;;;;;;;;;4977915;28;20043;-89
2022/05/12 00:13:20;;;;;;;13.38;3.30;;;;;;;;;;4978682;28;20050;-89
2022/05/12 00:15:48;;;;;;;9.18;2.60;;;;;;;;;;4954324;28;20881;-89
2022/05/12 00:18:16;;;;;;;13.10;2.50;;;;;;;;;;4978613;28;20100;-89
2022/05/12 00:20:44;;;;;;;6.78;2.15;;;;;;;;;;4979256;28;20061;-89
2022/05/12 00:23:20;;;;;;;10.50;2.38;;;;;;;;;;4977866;28;21012;-90
2022/05/12 00:25:49;;;;;;;11.27;2.75;;;;;;;;;;4972745;28;20065;-92
2022/05/12 00:28:19;;;;;;;16.88;3.03;;;;;;;;;;4974535;28;20047;-91
2022/05/12 00:30:49;;;;;;;10.05;2.58;;;;;;;;;;4982891;28;20047;-92
2022/05/12 00:33:22;;;;;;;11.95;2.78;;;;;;;;;;4964945;28;20077;-92
2022/05/12 00:35:50;;;;;;;13.20;2.78;;;;;;;;;;4979715;28;20153;-92
2022/05/12 00:38:18;;;;;;;14.85;3.53;;;;;;;;;;4974232;28;20050;-92
2022/05/12 00:40:47;;;;;;;9.75;2.80;;;;;;;;;;4977216;28;20053;-92
2022/05/12 00:43:39;;;;;;;9.75;2.53;;;;;;;;;;4971176;28;20403;-91
2022/05/12 00:46:11;;;;;;;11.73;3.03;;;;;;;;;;4967599;28;20039;-91
2022/05/12 00:48:40;;;;;;;8.75;2.60;;;;;;;;;;4967967;28;20054;-91
2022/05/12 00:51:10;;;;;;;7.50;2.85;;;;;;;;;;4975574;28;20053;-91
2022/05/12 00:53:39;;;;;;;5.65;2.33;;;;;;;;;;4956344;28;20051;-91
2022/05/12 00:56:14;;;;;;;7.60;2.38;;;;;;;;;;4974889;28;20043;-91
2022/05/12 00:58:42;;;;;;;6.07;2.75;;;;;;;;;;4973408;28;20046;-91
2022/05/12 01:01:11;;;;;;;9.95;2.65;;;;;;;;;;4971522;28;20058;-91
2022/05/12 01:03:41;;;;;;;9.32;2.90;;;;;;;;;;4972755;28;20059;-90
2022/05/12 01:06:09;;;;;;;6.50;3.03;;;;;;;;;;4974120;28;20043;-90
2022/05/12 01:08:39;;;;;;;10.98;2.63;;;;;;;;;;4971604;28;20053;-90
2022/05/12 01:11:14;;;;;;;9.23;3.20;;;;;;;;;;4976377;28;20046;-90
2022/05/12 01:13:47;;;;;;;8.43;2.70;;;;;;;;;;4973669;28;20046;-90
2022/05/12 01:16:36;;;;;;;8.27;2.80;;;;;;;;;;4971381;28;20366;-90
2022/05/12 01:19:06;;;;;;;11.52;2.97;;;;;;;;;;4953718;28;20090;-90
2022/05/12 01:21:34;;;;;;;11.00;3.30;;;;;;;;;;4954239;29;20047;-91
2022/05/12 01:24:02;;;;;;;6.88;2.28;;;;;;;;;;4953160;28;20122;-91
2022/05/12 01:26:31;;;;;;;5.32;2.50;;;;;;;;;;4952784;28;20457;-92
2022/05/12 01:28:58;;;;;;;7.75;2.90;;;;;;;;;;4954020;28;20146;-91
2022/05/12 01:31:26;;;;;;;11.27;3.08;;;;;;;;;;4953447;28;20047;-91
2022/05/12 01:33:54;;;;;;;10.32;3.08;;;;;;;;;;4953493;28;20051;-91
2022/05/12 01:36:22;;;;;;;10.05;3.30;;;;;;;;;;4954348;28;20194;-91
2022/05/12 01:38:50;;;;;;;5.72;2.58;;;;;;;;;;4952227;28;20055;-91
2022/05/12 01:41:18;;;;;;;7.30;2.83;;;;;;;;;;4953254;28;20051;-91
2022/05/12 01:43:46;;;;;;;9.60;3.75;;;;;;;;;;4953107;28;20468;-91
2022/05/12 01:46:14;;;;;;;9.15;2.75;;;;;;;;;;4951125;28;20139;-91
2022/05/12 01:48:42;;;;;;;7.32;2.50;;;;;;;;;;4952469;28;20055;-91
2022/05/12 01:51:10;;;;;;;7.25;2.95;;;;;;;;;;4936881;29;20138;-91
2022/05/12 01:53:38;;;;;;;9.30;2.80;;;;;;;;;;4953145;29;20465;-90
2022/05/12 01:56:07;;;;;;;6.53;2.60;;;;;;;;;;4952854;29;20049;-90
2022/05/12 01:58:36;;;;;;;7.95;2.78;;;;;;;;;;4934833;29;20055;-90
2022/05/12 02:01:04;;;;;;;9.68;2.92;;;;;;;;;;4929548;29;20075;-90
2022/05/12 02:03:32;;;;;;;9.05;2.72;;;;;;;;;;4936176;29;20099;-91
2022/05/12 02:06:01;;;;;;;10.05;3.20;;;;;;;;;;4934096;29;20525;-90
2022/05/12 02:08:28;;;;;;;8.05;3.03;;;;;;;;;;4931367;29;20079;-90
2022/05/12 02:10:56;;;;;;;6.28;2.40;;;;;;;;;;4932356;29;20054;-91
2022/05/12 02:13:26;;;;;;;5.90;2.38;;;;;;;;;;4934847;29;20063;-91
2022/05/12 02:15:56;;;;;;;5.55;2.72;;;;;;;;;;4931787;29;20047;-91
2022/05/12 02:18:28;;;;;;;5.00;2.70;;;;;;;;;;4955997;28;20047;-91
2022/05/12 02:20:57;;;;;;;5.22;2.47;;;;;;;;;;4957822;28;20054;-91
2022/05/12 02:23:26;;;;;;;7.07;2.65;;;;;;;;;;4958335;28;20047;-91
2022/05/12 02:25:54;;;;;;;5.18;2.80;;;;;;;;;;4959537;28;20441;-91
2022/05/12 02:28:22;;;;;;;5.97;2.22;;;;;;;;;;4955303;28;20047;-90
2022/05/12 02:30:50;;;;;;;6.88;2.50;;;;;;;;;;4955003;28;20047;-90
2022/05/12 02:33:18;;;;;;;5.93;2.42;;;;;;;;;;4948090;28;20051;-90
2022/05/12 02:35:46;;;;;;;5.55;2.33;;;;;;;;;;4939079;28;20490;-90
2022/05/12 02:38:14;;;;;;;7.15;2.58;;;;;;;;;;4952981;28;20047;-90
2022/05/12 02:40:42;;;;;;;6.18;2.35;;;;;;;;;;4957139;28;20062;-90
2022/05/12 02:43:25;;;;;;;6.75;2.70;;;;;;;;;;4953305;28;20047;-90
2022/05/12 02:45:57;;;;;;;6.18;2.58;;;;;;;;;;4956495;28;20523;-90
2022/05/12 02:48:29;;;;;;;8.90;3.00;;;;;;;;;;4957142;28;20053;-90
2022/05/12 02:50:58;;;;;;;6.68;3.22;;;;;;;;;;4965100;28;20114;-90
2022/05/12 02:53:27;;;;;;;5.95;3.00;;;;;;;;;;4957628;28;20142;-90
2022/05/12 02:55:58;;;;;;;7.18;3.38;;;;;;;;;;4959580;28;20086;-90
2022/05/12 02:58:27;;;;;;;6.75;2.90;;;;;;;;;;4960662;28;20428;-91
2022/05/12 03:00:56;;;;;;;4.45;1.60;;;;;;;;;;4958304;28;20046;-90
2022/05/12 03:03:24;;;;;;;6.93;1.50;;;;;;;;;;4958129;28;20485;-90
2022/05/12 03:05:53;;;;;;;1.73;0.90;;;;;;;;;;4957215;28;20142;-91
2022/05/12 03:08:20;;;;;;;3.33;0.98;;;;;;;;;;4959831;28;20051;-91
2022/05/12 03:10:51;;;;;;;3.33;1.02;;;;;;;;;;4960475;28;20516;-91
2022/05/12 03:13:20;;;;;;;3.20;1.00;;;;;;;;;;4955550;28;20057;-91
2022/05/12 03:15:48;;;;;;;2.65;1.00;;;;;;;;;;4964850;28;20062;-91
2022/05/12 03:18:16;;;;;;;2.50;1.00;;;;;;;;;;4958536;28;20066;-91
2022/05/12 03:20:44;;;;;;;2.03;1.10;;;;;;;;;;4958472;28;20417;-91
2022/05/12 03:23:13;;;;;;;4.20;1.33;;;;;;;;;;4961473;28;20050;-91
2022/05/12 03:25:45;;;;;;;3.42;1.50;;;;;;;;;;4961188;28;20058;-91
2022/05/12 03:28:12;;;;;;;3.95;1.55;;;;;;;;;;4961927;28;20501;-91
2022/05/12 03:30:42;;;;;;;2.60;1.60;;;;;;;;;;4963442;28;20047;-91
2022/05/12 03:33:10;;;;;;;4.80;1.77;;;;;;;;;;4967350;28;20462;-91
2022/05/12 03:35:38;;;;;;;3.85;1.50;;;;;;;;;;4961435;28;20058;-91
2022/05/12 03:38:06;;;;;;;8.23;1.70;;;;;;;;;;4965416;28;20043;-91
2022/05/12 03:40:34;;;;;;;2.95;1.40;;;;;;;;;;4964945;28;20575;-91
2022/05/12 03:43:02;;;;;;;3.25;1.45;;;;;;;;;;4962623;28;20055;-91
2022/05/12 03:45:30;;;;;;;3.92;1.50;;;;;;;;;;4959971;28;20327;-91
2022/05/12 03:47:58;;;;;;;3.38;1.10;;;;;;;;;;4965216;28;20050;-92
2022/05/12 03:50:28;;;;;;;2.15;1.10;;;;;;;;;;4962947;28;20433;-91
2022/05/12 03:52:56;;;;;;;3.03;1.45;;;;;;;;;;4958104;28;20054;-91
2022/05/12 03:55:26;;;;;;;4.15;1.50;;;;;;;;;;4958114;28;20398;-89
2022/05/12 03:57:55;;;;;;;6.43;1.52;;;;;;;;;;4959519;28;20053;-90
2022/05/12 04:00:27;;;;;;;4.35;1.42;;;;;;;;;;4962339;28;20077;-89
2022/05/12 04:02:54;;;;;;;6.55;1.55;;;;;;;;;;4959291;28;20054;-89
2022/05/12 04:05:22;;;;;;;5.80;1.80;;;;;;;;;;4959512;28;20082;-89
2022/05/12 04:07:51;;;;;;;3.40;1.42;;;;;;;;;;4961959;28;20480;-89
2022/05/12 04:10:21;;;;;;;4.28;1.55;;;;;;;;;;4958854;28;20059;-91
2022/05/12 04:12:50;;;;;;;4.40;1.67;;;;;;;;;;4958614;28;20055;-91
2022/05/12 04:15:19;;;;;;;7.75;1.48;;;;;;;;;;4959147;28;20555;-92
2022/05/12 04:18:02;;;;;;;7.13;1.95;;;;;;;;;;4960245;28;20131;-92
2022/05/12 04:20:31;;;;;;;4.88;1.92;;;;;;;;;;4961571;28;20055;-92
2022/05/12 04:23:00;;;;;;;6.55;1.83;;;;;;;;;;4954032;28;20051;-91
2022/05/12 04:25:28;;;;;;;5.70;2.20;;;;;;;;;;4953274;28;20082;-91
2022/05/12 04:27:56;;;;;;;6.35;2.22;;;;;;;;;;4963248;28;20483;-91
2022/05/12 04:30:26;;;;;;;7.55;1.95;;;;;;;;;;4962090;28;20048;-91
2022/05/12 04:32:54;;;;;;;4.93;2.10;;;;;;;;;;4961869;28;20176;-91
2022/05/12 04:35:23;;;;;;;8.93;2.30;;;;;;;;;;4960203;28;20073;-91
2022/05/12 04:37:54;;;;;;;6.03;2.17;;;;;;;;;;4954707;28;20077;-91
2022/05/12 04:40:28;;;;;;;10.48;2.50;;;;;;;;;;4940989;29;20188;-91
2022/05/12 04:42:58;;;;;;;8.82;2.35;;;;;;;;;;4957675;28;20620;-91
2022/05/12 04:45:29;;;;;;;4.97;2.00;;;;;;;;;;4944692;28;20106;-87
2022/05/12 04:47:56;;;;;;;6.10;2.10;;;;;;;;;;4959172;28;20070;-90
2022/05/12 04:50:28;;;;;;;8.13;2.42;;;;;;;;;;4958398;28;20078;-89
2022/05/12 04:52:56;;;;;;;8.52;3.55;;;;;;;;;;4957699;28;20161;-89
2022/05/12 04:55:27;;;;;;;7.32;2.78;;;;;;;;;;4956772;28;20501;-89
2022/05/12 04:57:56;;;;;;;8.82;2.50;;;;;;;;;;4954667;28;20047;-89
2022/05/12 05:00:28;;;;;;;4.53;2.25;;;;;;;;;;4957411;28;20864;-89
2022/05/12 05:02:56;;;;;;;7.35;2.65;;;;;;;;;;4956377;28;20052;-90
2022/05/12 05:05:24;;;;;;;6.63;2.45;;;;;;;;;;4957199;28;20047;-90
2022/05/12 05:07:53;;;;;;;4.40;1.90;;;;;;;;;;4956671;28;20565;-89
2022/05/12 05:10:25;;;;;;;7.22;2.40;;;;;;;;;;4954486;28;20043;-90
2022/05/12 05:12:56;;;;;;;7.40;2.47;;;;;;;;;;4957015;28;20046;-90
2022/05/12 05:15:25;;;;;;;6.35;2.70;;;;;;;;;;4958472;28;20687;-89
2022/05/12 05:17:52;;;;;;;7.35;2.85;;;;;;;;;;4957549;28;20154;-89
2022/05/12 05:20:23;;;;;;;6.45;2.60;;;;;;;;;;4957274;28;20046;-90
2022/05/12 05:22:52;;;;;;;12.30;2.30;;;;;;;;;;4959716;28;20047;-90
2022/05/12 05:25:20;;;;;;;8.48;2.10;;;;;;;;;;4960403;28;20889;-88
2022/05/12 05:27:50;;;;;;;6.28;2.40;;;;;;;;;;4957590;28;20054;-89
2022/05/12 05:30:21;;;;;;;9.27;2.30;;;;;;;;;;4961341;28;20046;-91
2022/05/12 05:32:48;;;;;;;5.00;2.25;;;;;;;;;;4960443;28;20051;-83
2022/05/12 05:35:17;;;;;;;5.70;2.03;;;;;;;;;;4954663;28;20110;-85
2022/05/12 05:37:45;;;;;;;6.85;2.72;;;;;;;;;;4955393;28;20127;-85
2022/05/12 05:40:14;;;;;;;9.25;2.78;;;;;;;;;;4943791;28;20051;-85
2022/05/12 05:42:43;;;;;;;5.30;2.50;;;;;;;;;;4953459;28;20050;-85
2022/05/12 05:45:15;;;;;;;8.48;2.83;;;;;;;;;;4953579;28;20059;-84
2022/05/12 05:47:50;;;;;;;6.35;2.20;;;;;;;;;;4951495;28;20103;-85
2022/05/12 05:50:22;;;;;;;8.63;2.70;;;;;;;;;;4954576;28;20162;-88
2022/05/12 05:55:36;;;;;;;8.18;2.15;;;;;;;;;;4956470;28;20092;-85
2022/05/12 05:58:05;;;;;;;8.02;2.30;;;;;;;;;;4955884;28;20043;-85
2022/05/12 06:00:32;;;;;;;8.23;2.10;;;;;;;;;;4955719;28;20141;-85
2022/05/12 06:03:00;;;;;;;8.20;2.30;;;;;;;;;;4955728;28;20053;-85
2022/05/12 06:05:28;;;;;;;10.25;3.03;;;;;;;;;;4956198;28;20953;-85
2022/05/12 06:07:57;;;;;;;7.82;2.25;;;;;;;;;;4954701;28;20050;-85
2022/05/12 06:10:24;;;;;;;6.97;2.20;;;;;;;;;;4955540;28;20141;-85
2022/05/12 06:12:53;;;;;;;5.45;1.95;;;;;;;;;;4955452;28;20061;-85
2022/05/12 06:15:20;;;;;;;9.73;2.85;;;;;;;;;;4954250;28;20085;-86
2022/05/12 06:17:48;;;;;;;11.32;2.47;;;;;;;;;;4955034;28;20785;-85
2022/05/12 06:20:21;;;;;;;5.78;2.33;;;;;;;;;;4957589;28;20066;-85
2022/05/12 06:22:48;;;;;;;6.85;2.40;;;;;;;;;;4934545;28;20964;-85
2022/05/12 06:25:17;;;;;;;6.10;1.77;;;;;;;;;;4960102;28;20055;-85
2022/05/12 06:27:45;;;;;;;6.40;2.45;;;;;;;;;;4959397;28;20134;-85
2022/05/12 06:30:16;;;;;;;7.57;2.15;;;;;;;;;;4956804;28;20061;-85
2022/05/12 06:32:49;;;;;;;7.15;2.30;;;;;;;;;;4952500;28;20051;-86
2022/05/12 06:35:20;;;;;;;6.20;1.90;;;;;;;;;;4966679;28;20825;-85
2022/05/12 06:37:48;;;;;;;6.07;2.22;;;;;;;;;;4958471;28;20047;-85
2022/05/12 06:40:17;;;;;;;9.88;2.33;;;;;;;;;;4949489;28;20145;-85
2022/05/12 06:42:50;;;;;;;4.55;1.83;;;;;;;;;;4959337;28;20680;-85
2022/05/12 06:45:23;;;;;;;6.25;1.92;;;;;;;;;;4957291;28;20063;-85
2022/05/12 06:47:53;;;;;;;4.85;2.00;;;;;;;;;;4958394;28;20065;-85
2022/05/12 06:50:25;;;;;;;7.45;2.13;;;;;;;;;;4958855;28;20058;-85
2022/05/12 06:52:54;;;;;;;7.38;2.08;;;;;;;;;;4958314;28;20055;-85
2022/05/12 06:55:24;;;;;;;11.18;2.22;;;;;;;;;;4957307;28;20145;-86
2022/05/12 06:57:52;;;;;;;10.52;2.10;;;;;;;;;;4957487;28;20047;-86
2022/05/12 07:00:20;;;;;;;4.80;1.80;;;;;;;;;;4957439;28;20050;-86
2022/05/12 07:02:48;;;;;;;7.22;2.38;;;;;;;;;;4956986;28;21079;-86
2022/05/12 07:05:19;;;;;;;5.65;2.35;;;;;;;;;;4958188;28;20161;-86
2022/05/12 07:07:46;;;;;;;6.15;1.83;;;;;;;;;;4958773;28;20054;-86
2022/05/12 07:10:17;;;;;;;3.92;1.90;;;;;;;;;;4957935;28;20050;-86
2022/05/12 07:12:46;;;;;;;8.45;2.20;;;;;;;;;;4957664;28;20070;-85
2022/05/12 07:15:14;;;;;;;6.35;1.70;;;;;;;;;;4948495;28;20456;-86
2022/05/12 07:17:44;;;;;;;7.95;2.00;;;;;;;;;;4956875;28;20051;-86
2022/05/12 07:28:34;;;;;;;4.68;2.17;;;;;;;;;;4958080;28;20544;-85
2022/05/12 07:31:05;;;;;;;6.00;1.50;;;;;;;;;;4957106;28;20050;-86
2022/05/12 07:33:39;;;;;;;6.32;1.95;;;;;;;;;;4956917;28;20051;-86
2022/05/12 07:36:31;;;;;;;5.85;1.70;;;;;;;;;;4957818;28;20057;-86
2022/05/12 07:39:00;;;;;;;4.43;1.48;;;;;;;;;;4941088;28;21026;-86
2022/05/12 07:41:28;;;;;;;10.23;2.15;;;;;;;;;;4940454;28;21008;-86
2022/05/12 07:43:56;;;;;;;5.45;1.63;;;;;;;;;;4957517;28;20105;-86
2022/05/12 07:46:30;;;;;;;4.60;1.70;;;;;;;;;;4956018;28;20153;-86
2022/05/12 07:48:58;;;;;;;8.20;1.70;;;;;;;;;;4934249;28;20051;-86
2022/05/12 07:51:26;;;;;;;7.78;1.77;;;;;;;;;;4957631;28;20051;-86
2022/05/12 07:53:54;;;;;;;4.60;1.52;;;;;;;;;;4956730;28;20571;-86
2022/05/12 07:56:25;;;;;;;6.55;1.73;;;;;;;;;;4957329;28;20070;-86
2022/05/12 07:58:53;;;;;;;5.57;1.50;;;;;;;;;;4956737;28;20428;-86
2022/05/12 08:01:20;;;;;;;5.78;2.10;;;;;;;;;;4955872;28;20082;-86
2022/05/12 08:03:48;;;;;;;6.07;2.35;;;;;;;;;;4958027;28;20058;-86
2022/05/12 08:06:17;;;;;;;4.50;1.63;;;;;;;;;;4956997;28;20070;-86
2022/05/12 08:08:48;;;;;;;5.10;1.60;;;;;;;;;;4956710;28;20051;-86
2022/05/12 08:11:16;;;;;;;5.75;1.33;;;;;;;;;;4956039;28;20149;-86
2022/05/12 08:13:46;;;;;;;4.70;1.50;;;;;;;;;;4957803;28;20081;-86
2022/05/12 08:16:16;;;;;;;3.30;1.25;;;;;;;;;;4955502;28;20058;-86
2022/05/12 08:18:46;;;;;;;5.28;1.80;;;;;;;;;;4957045;28;20047;-86
2022/05/12 08:21:14;;;;;;;4.78;1.50;;;;;;;;;;4956386;28;20047;-86
2022/05/12 08:23:42;;;;;;;8.23;1.60;;;;;;;;;;4956503;28;20065;-86
2022/05/12 08:26:10;;;;;;;4.63;1.60;;;;;;;;;;4956079;28;20059;-86
2022/05/12 08:28:38;;;;;;;6.45;1.50;;;;;;;;;;4957249;28;20063;-86
2022/05/12 08:31:06;;;;;;;3.75;1.40;;;;;;;;;;4955817;28;20067;-87
2022/05/12 08:33:37;;;;;;;6.22;1.75;;;;;;;;;;4956873;28;20078;-86
2022/05/12 08:36:04;;;;;;;4.45;1.80;;;;;;;;;;4956172;28;20063;-86
2022/05/12 08:38:34;;;;;;;9.07;1.80;;;;;;;;;;4956114;28;21080;-86
2022/05/12 08:41:25;;;;;;;4.70;1.65;;;;;;;;;;4956064;28;20059;-87
2022/05/12 08:43:56;;;;;;;4.88;1.67;;;;;;;;;;4957020;28;20374;-87
2022/05/12 08:46:47;;;;;;;4.22;1.73;;;;;;;;;;4954290;28;20115;-87
2022/05/12 08:49:22;;;;;;;8.98;1.50;;;;;;;;;;4955916;28;20134;-86
2022/05/12 08:51:55;;;;;;;7.43;1.42;;;;;;;;;;4955707;28;20530;-86
2022/05/12 08:54:26;;;;;;;4.00;1.30;;;;;;;;;;4955535;28;20101;-86
2022/05/12 08:57:01;;;;;;;7.13;1.95;;;;;;;;;;4956119;28;20051;-87
2022/05/12 08:59:31;;;;;;;4.53;1.40;;;;;;;;;;4956018;28;20043;-87
2022/05/12 09:02:18;;;;;;;6.65;1.42;;;;;;;;;;4954180;28;20067;-87
2022/05/12 09:04:59;;;;;;;6.68;1.73;;;;;;;;;;4955601;28;20051;-86
2022/05/12 09:07:47;;;;;;;4.78;1.60;;;;;;;;;;4956107;28;20868;-87
2022/05/12 09:10:26;;;;;;;4.95;1.40;;;;;;;;;;4956216;28;20047;-86
2022/05/12 09:12:59;;;;;;;4.38;1.52;;;;;;;;;;4955498;28;20139;-87
2022/05/12 09:15:33;;;;;;;4.47;1.23;;;;;;;;;;4955620;28;20059;-87
2022/05/12 09:18:04;;;;;;;5.43;1.30;;;;;;;;;;4954264;28;20066;-86
2022/05/12 09:20:34;;;;;;;7.97;1.83;;;;;;;;;;4955665;28;20078;-87
2022/05/12 09:23:04;;;;;;;3.28;1.20;;;;;;;;;;4955960;28;20077;-86
2022/05/12 09:25:36;;;;;;;5.35;1.65;;;;;;;;;;4955451;28;20548;-87
2022/05/12 09:28:16;;;;;;;3.45;1.30;;;;;;;;;;4955166;28;20482;-87
2022/05/12 09:30:45;;;;;;;2.83;1.00;;;;;;;;;;4954422;28;20061;-86
2022/05/12 09:33:26;;;;;;;5.53;1.75;;;;;;;;;;4954887;28;20877;-86
2022/05/12 09:35:56;;;;;;;3.17;1.40;;;;;;;;;;4954741;28;20059;-86
2022/05/12 09:38:26;;;;;;;4.72;1.30;;;;;;;;;;4954887;28;20509;-86
2022/05/12 09:40:55;;;;;;;2.92;1.00;;;;;;;;;;4955040;28;20102;-86
2022/05/12 09:43:31;;;;;;;2.95;1.33;;;;;;;;;;4955651;28;20058;-87
2022/05/12 09:46:16;;;;;;;5.38;1.23;;;;;;;;;;4953959;28;20058;-87
2022/05/12 09:48:48;;;;;;;5.22;1.30;;;;;;;;;;4956015;28;20054;-87
2022/05/12 09:51:23;;;;;;;7.15;1.20;;;;;;;;;;4953831;28;20424;-87
2022/05/12 09:54:12;;;;;;;2.78;1.10;;;;;;;;;;4955114;28;20142;-87
2022/05/12 09:56:40;;;;;;;5.55;1.30;;;;;;;;;;4954376;28;20144;-86
2022/05/12 09:59:22;;;;;;;2.83;0.98;;;;;;;;;;4954364;28;20051;-87
2022/05/12 10:02:03;;;;;;;6.13;1.10;;;;;;;;;;4953892;28;20145;-87
2022/05/12 10:10:14;;;;;;;4.78;1.25;;;;;;;;;;4954761;28;20043;-87
2022/05/12 10:13:11;;;;;;;4.63;1.05;;;;;;;;;;4954478;28;20055;-87
2022/05/12 10:15:41;;;;;;;;;;;;;;;;;;4962658;28;20170;-85
2022/05/12 10:18:25;;;;;;;2.85;1.20;;;;;;;;;;4954482;28;20041;-85
2022/05/12 10:21:01;;;;;;;2.67;1.10;;;;;;;;;;4957211;28;20054;-85
2022/05/12 10:23:52;;;;;;;3.50;0.90;;;;;;;;;;4954570;28;20043;-85
2022/05/12 10:26:29;;;;;;;3.00;0.95;;;;;;;;;;4953657;28;20059;-85
2022/05/12 10:29:09;;;;;;;3.58;0.90;;;;;;;;;;4954288;28;20082;-85
2022/05/12 10:31:47;;;;;;;3.72;1.10;;;;;;;;;;4952878;28;20058;-85
2022/05/12 10:34:43;;;;;;;3.88;0.95;;;;;;;;;;4954041;28;20055;-85
2022/05/12 10:37:43;;;;;;;5.05;1.00;;;;;;;;;;4953909;28;20648;-85
2022/05/12 10:40:43;;;;;;;2.28;0.93;;;;;;;;;;4945968;28;20050;-85
2022/05/12 10:43:16;;;;;;;3.83;0.90;;;;;;;;;;4953883;28;20065;-85
2022/05/12 10:46:06;;;;;;;3.20;0.98;;;;;;;;;;4953083;28;20951;-85
2022/05/12 10:48:54;;;;;;;4.25;0.88;;;;;;;;;;4953732;28;20165;-85
2022/05/12 10:51:41;;;;;;;4.90;1.20;;;;;;;;;;4946626;28;20062;-85
2022/05/12 10:54:25;;;;;;;3.90;1.08;;;;;;;;;;4953896;28;20051;-84
2022/05/12 10:57:24;;;;;;;4.65;1.10;;;;;;;;;;4953866;28;21057;-85
2022/05/12 11:00:08;;;;;;;4.82;1.33;;;;;;;;;;4952945;28;20055;-85
2022/05/12 11:02:43;;;;;;;12.63;2.00;;;;;;;;;;4955141;28;20044;-85
2022/05/12 11:05:24;;;;;;;6.55;1.35;;;;;;;;;;4954079;28;20102;-85
2022/05/12 11:08:05;;;;;;;4.38;0.85;;;;;;;;;;4958001;28;20051;-85
2022/05/12 11:10:44;;;;;;;5.35;1.00;;;;;;;;;;4958962;28;20055;-85
2022/05/12 11:13:37;;;;;;;4.00;1.45;;;;;;;;;;4959362;28;20054;-85
2022/05/12 11:16:10;;;;;;;4.03;1.00;;;;;;;;;;4869611;29;21022;-85
2022/05/12 11:18:44;;;;;;;6.32;1.02;;;;;;;;;;4871291;29;20064;-85
2022/05/12 11:21:25;;;;;;;3.47;1.05;;;;;;;;;;4870728;29;20112;-85
2022/05/12 11:24:16;;;;;;;3.53;1.15;;;;;;;;;;4870491;29;20061;-85
2022/05/12 11:27:15;;;;;;;3.33;1.08;;;;;;;;;;4870676;29;20056;-85
2022/05/12 11:30:28;;;;;;;4.78;1.10;;;;;;;;;;4870106;29;20057;-84
2022/05/12 11:33:07;;;;;;;4.40;1.10;;;;;;;;;;4865242;29;20106;-85
2022/05/12 11:35:43;;;;;;;4.00;0.90;;;;;;;;;;4870545;29;20065;-85
2022/05/12 11:38:42;;;;;;;2.90;0.70;;;;;;;;;;4870045;29;20053;-85
2022/05/12 11:41:19;;;;;;;4.22;1.00;;;;;;;;;;4870496;29;20060;-85
2022/05/12 11:46:52;;;;;;;7.63;0.90;;;;;;;;;;4868847;29;20060;-85
2022/05/12 11:49:44;;;;;;;2.97;0.90;;;;;;;;;;4869704;29;20113;-84
2022/05/12 11:52:27;;;;;;;4.32;1.13;;;;;;;;;;4874473;28;20056;-85
2022/05/12 11:55:31;;;;;;;3.03;0.80;;;;;;;;;;4959831;28;20059;-88
2022/05/12 11:58:04;;;;;;;2.40;0.70;;;;;;;;;;4877864;29;20053;-85
2022/05/12 12:00:34;;;;;;;5.95;1.20;;;;;;;;;;4876626;29;20057;-85
2022/05/12 12:03:20;;;;;;;3.45;0.80;;;;;;;;;;4877261;29;20140;-84
2022/05/12 12:05:50;;;;;;;2.72;0.80;;;;;;;;;;4875711;29;20991;-85
2022/05/12 12:08:30;;;;;;;3.47;0.90;;;;;;;;;;4876113;29;20105;-85
2022/05/12 12:11:12;;;;;;;3.13;1.15;;;;;;;;;;4867971;29;20064;-84
2022/05/12 12:13:53;;;;;;;4.18;0.75;;;;;;;;;;4875332;29;20057;-84
2022/05/12 12:16:46;;;;;;;3.35;0.85;;;;;;;;;;4874376;29;20144;-85
2022/05/12 12:19:46;;;;;;;5.72;1.13;;;;;;;;;;4879213;29;20526;-84
2022/05/12 12:22:19;;;;;;;5.05;1.10;;;;;;;;;;4877042;29;20061;-85
2022/05/12 12:25:02;;;;;;;3.20;1.00;;;;;;;;;;4876860;29;20152;-88
2022/05/12 12:27:48;;;;;;;5.65;1.15;;;;;;;;;;4880373;29;20064;-90
2022/05/12 12:30:26;;;;;;;7.53;1.23;;;;;;;;;;4881527;29;20155;-90
2022/05/12 12:33:19;;;;;;;5.38;1.10;;;;;;;;;;4893972;28;20066;-89
2022/05/12 12:36:03;;;;;;;5.95;1.50;;;;;;;;;;4915811;29;20114;-89
2022/05/12 12:38:45;;;;;;;2.50;1.02;;;;;;;;;;4914480;29;20147;-87
2022/05/12 12:41:27;;;;;;;5.32;1.27;;;;;;;;;;4915197;29;20072;-88
2022/05/12 12:44:00;;;;;;;3.72;1.10;;;;;;;;;;4916688;29;20067;-88
2022/05/12 12:46:31;;;;;;;2.70;0.80;;;;;;;;;;4916128;29;20125;-88
2022/05/12 12:49:08;;;;;;;7.05;1.20;;;;;;;;;;4917727;29;20124;-87
2022/05/12 12:51:38;;;;;;;6.75;1.58;;;;;;;;;;4916859;29;20179;-88
2022/05/12 12:57:23;;;;;;;6.28;1.17;;;;;;;;;;4914943;29;20061;-86
2022/05/12 13:00:04;;;;;;;3.03;1.08;;;;;;;;;;4911866;29;20066;-86
2022/05/12 13:02:41;;;;;;;4.30;0.90;;;;;;;;;;4914005;29;20056;-86
2022/05/12 13:05:08;;;;;;;1.98;0.60;;;;;;;;;;4915288;29;20146;-86
2022/05/12 13:07:39;;;;;;;4.30;0.80;;;;;;;;;;4914735;29;20127;-86
2022/05/12 13:10:13;;;;;;;4.43;0.98;;;;;;;;;;4913777;29;20165;-86
2022/05/12 13:12:57;;;;;;;4.85;0.85;;;;;;;;;;4933107;28;20059;-86
2022/05/12 13:15:24;;;;;;;7.05;1.38;;;;;;;;;;4955530;28;20062;-86
2022/05/12 13:18:03;;;;;;;3.58;0.80;;;;;;;;;;4953522;28;20057;-87
2022/05/12 13:20:52;;;;;;;3.63;0.90;;;;;;;;;;4956102;28;20475;-88
2022/05/12 13:23:24;;;;;;;7.40;1.05;;;;;;;;;;4955668;28;20082;-87
2022/05/12 13:25:53;;;;;;;6.43;1.20;;;;;;;;;;4955494;28;20058;-86
2022/05/12 13:28:23;;;;;;;3.38;0.95;;;;;;;;;;4954444;28;20512;-86
2022/05/12 13:31:11;;;;;;;3.72;0.98;;;;;;;;;;4953727;28;20043;-88
2022/05/12 13:33:53;;;;;;;6.00;1.08;;;;;;;;;;4956062;28;20137;-86
2022/05/12 13:36:24;;;;;;;5.10;1.05;;;;;;;;;;4955279;28;20385;-87
2022/05/12 13:38:52;;;;;;;4.38;1.08;;;;;;;;;;4955488;28;20050;-88
2022/05/12 13:41:35;;;;;;;4.05;0.80;;;;;;;;;;4954565;28;20406;-85
2022/05/12 13:44:09;;;;;;;2.72;1.13;;;;;;;;;;4954155;28;20397;-86
2022/05/12 13:46:38;;;;;;;4.25;1.02;;;;;;;;;;4952953;28;20054;-85
2022/05/12 13:49:11;;;;;;;3.92;1.10;;;;;;;;;;4953878;28;20137;-84
2022/05/12 13:51:52;;;;;;;3.33;0.73;;;;;;;;;;4952500;28;20062;-85
2022/05/12 13:54:39;;;;;;;2.28;0.85;;;;;;;;;;4953050;28;20055;-84
2022/05/12 13:57:29;;;;;;;3.67;1.00;;;;;;;;;;4950289;28;20117;-83
2022/05/12 13:59:59;;;;;;;6.82;1.20;;;;;;;;;;4952683;28;20134;-86
2022/05/12 14:02:33;;;;;;;6.00;1.30;;;;;;;;;;4954503;28;20059;-87
2022/05/12 14:05:14;;;;;;;6.88;1.10;;;;;;;;;;4953040;28;20062;-86
2022/05/12 14:07:43;;;;;;;4.60;1.20;;;;;;;;;;4953860;28;20475;-86
2022/05/12 14:10:27;;;;;;;6.32;2.15;;;;;;;;;;4945325;28;20143;-86
2022/05/12 14:21:20;;;;;;;4.30;0.95;;;;;;;;;;4954562;28;20097;-86
2022/05/12 14:23:48;;;;;;;4.93;1.73;;;;;;;;;;4953484;28;20055;-86
2022/05/12 14:26:16;;;;;;;3.80;1.20;;;;;;;;;;4952534;28;20516;-86
2022/05/12 14:28:44;;;;;;;6.82;1.50;;;;;;;;;;4953477;28;20150;-86
2022/05/12 14:31:12;;;;;;;10.50;1.50;;;;;;;;;;4952850;28;20051;-86
2022/05/12 14:33:40;;;;;;;7.68;1.60;;;;;;;;;;4953639;28;20079;-86
2022/05/12 14:36:08;;;;;;;5.68;1.40;;;;;;;;;;4954520;28;20069;-90
2022/05/12 14:38:36;;;;;;;4.63;1.17;;;;;;;;;;4952206;28;20126;-87
2022/05/12 14:41:04;;;;;;;4.68;1.55;;;;;;;;;;4955380;28;20075;-85
2022/05/12 14:43:32;;;;;;;4.20;1.10;;;;;;;;;;4956399;28;20157;-84
2022/05/12 14:46:00;;;;;;;3.85;1.33;;;;;;;;;;4956218;28;20057;-84
2022/05/12 14:48:28;;;;;;;8.10;1.40;;;;;;;;;;4958200;28;20090;-84
2022/05/12 14:50:56;;;;;;;3.50;0.95;;;;;;;;;;4957161;28;20051;-87
2022/05/12 14:53:24;;;;;;;4.68;1.50;;;;;;;;;;4957293;28;20054;-87
2022/05/12 14:55:52;;;;;;;3.92;1.25;;;;;;;;;;4957164;28;20050;-87
2022/05/12 14:58:20;;;;;;;4.72;1.23;;;;;;;;;;4957586;28;20062;-87
2022/05/12 15:00:48;;;;;;;4.85;1.30;;;;;;;;;;4954918;28;20486;-87
2022/05/12 15:03:16;;;;;;;3.55;1.10;;;;;;;;;;4949202;28;20055;-87
2022/05/12 15:05:44;;;;;;;5.45;0.98;;;;;;;;;;4957023;28;20062;-87
2022/05/12 15:08:12;;;;;;;7.88;1.10;;;;;;;;;;4958062;28;20130;-88
2022/05/12 15:10:40;;;;;;;4.32;1.15;;;;;;;;;;4958295;28;20072;-87
2022/05/12 15:13:08;;;;;;;3.60;1.20;;;;;;;;;;4955961;28;20043;-87
2022/05/12 15:15:37;;;;;;;4.63;1.23;;;;;;;;;;4956180;28;20146;-88
2022/05/12 15:18:04;;;;;;;5.85;1.35;;;;;;;;;;4957003;28;20405;-87
2022/05/12 15:20:32;;;;;;;9.43;1.92;;;;;;;;;;4957535;28;20078;-87
2022/05/12 15:23:01;;;;;;;3.30;1.10;;;;;;;;;;4954939;28;20063;-87
2022/05/12 15:25:28;;;;;;;5.28;1.10;;;;;;;;;;4956598;28;20626;-87
2022/05/12 15:27:57;;;;;;;3.53;1.30;;;;;;;;;;4955202;28;20051;-86
2022/05/12 15:30:25;;;;;;;5.82;1.58;;;;;;;;;;4956597;28;20051;-86
2022/05/12 15:32:54;;;;;;;5.55;1.23;;;;;;;;;;4950426;28;20603;-85
2022/05/12 15:35:23;;;;;;;9.23;2.17;;;;;;;;;;4955202;28;20051;-85
2022/05/12 15:37:54;;;;;;;6.10;1.80;;;;;;;;;;4957477;28;20051;-87
2022/05/12 15:40:22;;;;;;;5.53;1.73;;;;;;;;;;4939556;28;20110;-86
2022/05/12 15:42:50;;;;;;;6.25;1.52;;;;;;;;;;4953762;28;20047;-86
2022/05/12 15:45:18;;;;;;;2.83;0.93;;;;;;;;;;4955846;28;20503;-86
2022/05/12 15:47:49;;;;;;;6.85;1.23;;;;;;;;;;4957165;28;20054;-86